Timeline UpdatesTrip UpdatesNews PostsPvt PostsTravel TipsAdmin PostsConv PostsFollowed PostsChat RequestsBlog PostsPNR Posts

Disclaimer
Search
 
 
Wed Jul 30, 2014 18:41:27 ISTHomeTrainsΣChainsAtlasPNRForumGalleryNewsFAQTripsMembersLoginFeedback
No Recent News for this Train
Other Trains in the News **new
Latest...
Will arrive MAQ at 11:05 w.e.f 1st july 2012
Sat Jun 23, 2012 (11:41PM)
⇐ Return Journey: Train# 16348

16347/Trivandrum - Mangalore Express

Feb 28 2014 (1:41PM)
Change Departure Station:
Change Arrival Station:
Post a Train Travel TipPost a Train Travel Tip **new
Post a Comment/Question/Picture/VideoPost a Comment/Question/Picture/Video
Pantry/Catering
✕ NO Pantry Car
✓ Catering Avbl
RSA - Rake Sharing
RSA with 12619/12620 Matsyagandha Express
Rake/Coach Composition
Loco-SLR-UR-UR-S1- -S11-B1-B2-B3-A1-UR-UR-SLR
Loco
ED WDM-3D which brings 16650 parasuram takes this train back
News    PNR    Forum    Time-Table    Availability    Fare Chart    Map    Arr/Dep History    Trips    Gallery    ΣChains    X/O    Timeline    
Travel Time: 1h 50m    4 halts    Distance: 69 km    Avg Speed: 37 km/hr
Type: Mail/Express
Zone: SR/Southern
Departs @ 09:05 (Avg 38m late)
Platform# ???
SMTWTFS
Kanhangad/KZE 
Arrives @ 10:55 (Avg 11m late)
Platform# 1
SMTWTFS
Mangalore Central/MAQ 

4 halts. 10 intermediate Stations between Kanhangad and Mangalore Central

Show ALL intermediate Stations  Show Old Time-Table

#CodeStation NameX/OArrivesAvgDepartsAvgHaltPFDay#KmSpeedElevZoneAddress
1TVCTrivandrum Central (5)  -20:40+221-563.03512mSRThiruvananthapuram 695001, Kerala
2TVPThiruvananthapuram Pettah (2)X  20:44+120:45+11m21-560.77518mSRTrivandrum Ph: 04712470181, Kerala
3CRYChirayinkeezhu (2)  21:06+221:07+21m21-534.34619mSRChirayinkeezhu, Kerala
4KVUKadakavur (3)X  21:11+621:12+71m--1-531.24620mSRKadakkavoor, Kerala
5VAKVarkala Sivagiri (3)  21:24+521:25+61m--1-522.16152mSREdava Kappil Road, Kerala
6PVUParavur (3)  21:36+821:37+81m--1-510.85318mSRParavoor, Kerala
7MYYMayyanad (2)  21:41+921:42+91m--1-507.34121mSRMayyanad, Kerala
8QLNKollam Junction (6)  21:55+722:00+75m21-498.47316mSRKollam 0474-2746194, Kerala
9STKTSasthamkotta (2)X22:16+1622:17+161m--1-479.0650mSRKollam Dist, Kerala
10KPYKarunagappalli (2)  22:24+2122:25+221m11-471.34112mSRKollam Dist, Kerala
11KYJKayamkulam Junction (5)  22:45+1922:47+192m--1-457.65811mSRAlappuzha Ph;0479-2442042, Kerala
12MVLKMavelikara (3)  22:55+2122:57+212m21-450.06313mSRMavelikkara Ph: 0479-2302249, Kerala
13CNGRChengannur (3)  23:09+1923:10+201m31-437.4606mSRPh: 0479-2452340, Kerala
14TRVLTiruvalla (2)  23:19+2323:20+241m--1-428.35227mSRPh: 0469-2601314, Kerala
15CGYChanganassery (3)  23:29+2723:30+281m--1-420.54711mSRPh: 0481- 2420108, Kerala
16KTYMKottayam (3)  23:53+2423:58+245m--1-402.66015mSRTel: 0481 2563535, Kerala
17PVRDPiravom Road  00:29+3200:30+341m--2-371.43112mSRKottayam, Kerala
18ERNErnakulam Town (North) (2)X  01:25+1601:30+165m12-342.7509mSRTel: 0484 2395198, Kerala
19AWYAluva (3)X  01:50+2001:53+193m32-325.86112mSRPh: 0484-2624141, Kerala
20AFKAngamaly for Kalady (3)X  02:02+2102:03+211m--2-316.65716mSRPhone: 0484-2452340, Kerala
21CKIChalakkudy (3)  02:19+2002:20+201m22-301.4439mSRPh: 0480- 2701368, Kerala
22IJKIrinjalakkuda (2)X  02:29+2302:30+231m--2-295.04418mSRKalletumkara, Kerala
23TCRThrissur (4)X  03:02+1303:05+133m22-271.2706mSRThrissur Tel: 0487 2423150, Kerala
24WKIWadakkanchery (2)X  03:19+1903:20+191m22-254.82540mSRWadackanchery, Kerala
25SRRShoranur Junction (7)X  04:00+1104:10+2310m--2-238.35026mSRShoranur ph.no 0466-2222913, Kerala
26PTBPattambi (2)  04:24+2304:25+231m--2-226.85821mSRPattambi, Kerala
27KTUKuttippuram (2)  04:44+2404:45+261m--2-208.35617mSRKuttippuram, Kerala
28TIRTirur (3)  05:01+2405:03+242m12-193.2609mSRTel: 0494 2422240, Kerala
29TATanur (3)  05:11+2905:12+301m--2-185.28111mSRMalappuram, Kerala
30PGIParappangadi (2)  05:18+3205:20+322m--2-177.110019mSRParappanangadi, Kerala
31VLIVallikunnu (2)  05:23+1305:25+122m--2-172.13813mSRVallikkunnu, Kerala
32FKFerok (2)  05:41+3105:43+302m--2-161.92719mSRFeroke, Kerala
33CLTKozhikode Main (4)X  06:05+2506:10+265m32-152.06611mSRCalicut Tel: 0495 2701234, Kerala
34QLDKoyilandy (3)X  06:32+2906:33+291m--2-127.67711mSRQuilandi, Kerala
35BDJVadakara (2)  06:50+3206:52+322m22-105.79711mSRCalicut / Station Ph No : 0496-2524254, Kerala
36MAHEMahe (2)  07:00+3507:02+342m--2-92.86916mSRMahe, Puducherry
37TLYThalassery (2)  07:10+3807:12+382m--2-83.6339mSRKannur, Kerala
38CANKannur Main (3)  07:50+2007:55+255m12-62.96714mSRKannur Tel: 0497 2705555, Kerala
39KPQKannapuram (2)X  08:08+3008:10+292m12-48.5569mSRKannur District, Kerala
40PAZPayangadi (2)  08:18+2908:20+292m12-41.08712mSRKannur District, Kerala
41PAYPayyanur (3)X  08:28+3108:30+312m--2-29.31240mSRKannur District, Kerala
42TKQTrikkarippur  08:33+1208:35+112m--2-23.16413mSRKasargod district, Kerala
43CHVCharvattur (3)X  08:43+3508:45+352m--2-14.55314mSRKasaragod district, Kerala
44NLENileshwar (2)  08:51+4108:53+402m--2-9.35612mSRNileswaram, Kerala
45KZE»Kanhangad (3)»  09:03+3909:05+382m--20.08815mSRKanhangad, Kerala
46BFRBekal Fort (2)X  09:11+1609:13+152m--28.85811mSRPallikere, Kerala
47KQKKottikkulam (2)  09:18+4109:20+402m2213.64425mSRBekal, Kerala
48KGQKasaragod (3)X  09:33+3809:35+372m2223.110518mSRTel: 04994 220800, Kerala
49KMQKumbala (2)  09:42+3809:44+372m--235.32823mSRKumbla, Kerala
50MAQ•Mangalore Central (4)•  10:55+11-1268.8-14mSRMangalore 575001, Karnataka
Scroll to Top
Scroll to Bottom